Tiempo atmosférico en la estación meteorológica de Alberca de Zancara, Cuenca (805 m.)



Fecha
DESCASC
Temp. máxima en grados centígrados (hora)
DESCASC
Temp. mínima en grados centígrados (hora)
DESCASC
Temp. media en grados centígrados
DESCASC
Racha de viento máxima en m/sg (hora)
DESCASC
Velocidad máxima media en intervalos de 10 minutos(hora)
DESCASC
Precipitaciones diarias en mm
DESCASC
Precipitaciones de 00:00 a 06:00 en mm
DESCASC
Precipitaciones de 06:00 a 12:00 en mm
DESCASC
Precipitaciones de 12:00 a 18:00 en mm
DESCASC
Precipitaciones de 18:00 a 24:00 en mm
DESCASC
19-09-2019 27.9 (16:10) 15 (07:50) 21.4 8.06 (16:40) 3.61 (16:40) 0 0 0 0 0
18-09-2019 26.9 (16:30) 12.8 (08:10) 19.8 6.11 (17:20) 3.33 (17:10) 0 0 0 0 0
17-09-2019 29.3 (15:50) 14.8 (00:00) 22 20.28 (18:20) 11.39 (18:20) 7.6 0 0 0 7.6
16-09-2019 26.9 (17:30) 17.8 (00:00) 22.3 5.28 (02:40) 3.06 (17:50) 0 0 0 0 0
15-09-2019 24.3 (17:30) 16.2 (00:00) 20.3 10.83 (15:30) 5.28 (15:40) 0 0 0 0 0
14-09-2019 20.8 (17:20) 13.8 (00:00) 17.3 10 (14:10) 5.83 (11:50) 5.4 0.4 0.2 4.8 0
13-09-2019 20 (10:40) 12.8 (00:00) 16.4 11.39 (13:30) 7.22 (13:30) 20 0 5.2 12.4 2.4
12-09-2019 23.2 (16:10) 12.7 (00:00) 18 17.78 (13:10) 10.28 (13:00) 0 0 0 0 0
11-09-2019 22.9 (13:40) 10.5 (00:00) 16.7 15 (13:10) 8.89 (13:20) 0.6 0 0 0 0.6
10-09-2019 21 (00:00) 10.3 (23:00) 15.7 15.83 (17:30) 8.89 (12:20) 0.2 0 0 0 0.2
09-09-2019 28.8 (17:10) 11.7 (08:00) 20.2 13.33 (16:30) 8.06 (17:30) 0 0 0 0 0
08-09-2019 29.2 (15:50) 14.2 (00:00) 21.7 9.44 (00:40) 4.17 (01:30) 0 0 0 0 0
07-09-2019 29.1 (17:40) 15.9 (00:00) 22.5 10.83 (22:50) 5.28 (23:10) 0 0 0 0 0
06-09-2019 29.6 (18:20) 15.6 (00:00) 22.6 9.17 (00:10) 4.72 (00:10) 0 0 0 0 0
05-09-2019 29.8 (16:40) 17 (00:00) 23.4 9.17 (23:50) 5.28 (23:59) 0 0 0 0 0
04-09-2019 33 (16:30) 16.5 (00:00) 24.8 8.33 (18:20) 4.72 (18:30) 0 0 0 0 0
03-09-2019 32.5 (18:20) 16.6 (00:00) 24.6 7.5 (16:00) 4.72 (18:00) 0 0 0 0 0
02-09-2019 31.5 (17:00) 18 (00:00) 24.8 10 (17:40) 5.83 (00:30) 0 0 0 0 0
01-09-2019 33.5 (17:40) 16.9 (00:00) 25.2 9.44 (23:59) 5 (23:59) 0 0 0 0 0
31-08-2019 32.9 (17:40) 15.6 (00:00) 24.3 5.83 (18:10) 2.5 (15:30) 0 0 0 0 0
30-08-2019 33.7 (16:50) 17.3 (00:00) 25.5 18.33 (17:10) 10.28 (17:10) 0.6 0 0 0 0.6
29-08-2019 32.5 (17:50) 16.7 (00:00) 24.6 5.83 (22:40) 3.06 (17:30) 0 0 0 0 0
28-08-2019 30.5 (17:00) 14 (00:00) 22.3 6.94 (16:20) 3.89 (19:10) 0 0 0 0 0
27-08-2019 26.5 (18:00) 12.9 (00:00) 19.7 12.5 (01:40) 7.22 (01:40) 2.2 2.2 0 0 0
26-08-2019 28 (18:10) 15.7 (00:00) 21.8 13.06 (23:30) 7.22 (23:50) 4.6 0 0 0 4.6
25-08-2019 32.1 (17:20) 15.7 (00:00) 23.9 9.44 (21:30) 4.72 (20:00) 0 0 0 0 0
24-08-2019 33.2 (17:20) 15.2 (00:00) 24.2 7.22 (00:30) 3.61 (23:40) 0 0 0 0 0
23-08-2019 31.6 (18:00) 14.4 (00:00) 23 8.06 (11:10) 3.89 (11:40) 0 0 0 0 0
22-08-2019 30.9 (17:40) 13.5 (00:00) 22.2 6.67 (13:10) 3.33 (23:40) 0 0 0 0 0
21-08-2019 24.6 (12:30) 18.9 (00:00) 21.8 9.17 (13:00) 5.28 (22:40) 0 0 0 0 0

Gráficas

Temp. máximas Temp. mínimas Temp. medias Precipitaciones Rachas de viento máximas Velocidades máximas media en intervalos de 10 minutos

Datos horarios

Fecha y hora oficial Temperatura (ºC) Velocidad del viento (km/h) Dirección del viento Racha (km/h) Dirección de racha Precipitación (mm) Presión (hPa) Tendencia (hPa) Humedad (%)
2019-09-19 23:00:00 19.6 7 Sudeste 20 Este 0 -- -- 75
2019-09-19 22:00:00 20.4 6 Este 20 Sudeste 0 -- -- 65
2019-09-19 21:00:00 22 9 Sudeste 19 Sudeste 0 -- -- 57
2019-09-19 20:00:00 24.2 5 Sur 15 Sudoeste 0 -- -- 50
2019-09-19 19:00:00 26.2 5 Sur 19 Sudeste 0 -- -- 47
2019-09-19 18:00:00 25.9 10 Sur 21 Sudeste 0 -- -- 44
2019-09-19 17:00:00 23.6 11 Sur 29 Sudeste 0 -- -- 55
2019-09-19 16:00:00 27.7 9 Sur 18 Sur 0 -- -- 40
2019-09-19 15:00:00 26.7 6 Sudoeste 19 Sur 0 -- -- 42
2019-09-19 14:00:00 26.9 8 Sur 18 Sudeste 0 -- -- 44
2019-09-19 13:00:00 25.8 8 Sudeste 14 Sur 0 -- -- 48
2019-09-19 12:00:00 23.9 6 Sur 13 Sudeste 0 -- -- 58
2019-09-19 11:00:00 21.3 5 Sudeste 12 Sudeste 0 -- -- 69
2019-09-19 10:00:00 18.3 4 Este 13 Nordeste 0 -- -- 74
2019-09-19 09:00:00 15.7 9 Este 14 Este 0 -- -- 78
2019-09-19 08:00:00 15 8 Este 12 Este 0 -- -- 81
2019-09-19 07:00:00 15.6 6 Este 10 Nordeste 0 -- -- 79
2019-09-19 06:00:00 15.5 2 Nordeste 9 Nordeste 0 -- -- 82
2019-09-19 05:00:00 16.1 4 Nordeste 9 Nordeste 0 -- -- 80
2019-09-19 04:00:00 15.9 0 Calma 8 Nordeste 0 -- -- 82
2019-09-19 03:00:00 16.5 3 Nordeste 12 Nordeste 0 -- -- 78
2019-09-19 02:00:00 16.7 4 Este 10 Este 0 -- -- 74
2019-09-19 01:00:00 16.7 0 Calma 2 Nordeste 0 -- -- 75
2019-09-19 00:00:00 17.5 3 Nordeste 9 Norte 0 -- -- 71
2019-09-18 23:00:00 18.5 0 Calma 6 Norte 0 -- -- 68
2019-09-18 22:00:00 19.6 0 Calma 8 Norte 0 -- -- 62
2019-09-18 21:00:00 21.3 0 Calma 8 Oeste 0 -- -- 58
2019-09-18 20:00:00 23.7 5 Oeste 13 Oeste 0 -- -- 51
2019-09-18 19:00:00 26.1 10 Oeste 17 Oeste 0 -- -- 41
2019-09-18 18:00:00 26.7 9 Oeste 22 Noroeste 0 -- -- 40
2019-09-18 17:00:00 26.8 10 Oeste 19 Oeste 0 -- -- 39
2019-09-18 16:00:00 26.5 10 Oeste 17 Oeste 0 -- -- 42
2019-09-18 15:00:00 25.7 8 Oeste 17 Oeste 0 -- -- 48
2019-09-18 14:00:00 25.5 5 Sur 11 Sudeste 0 -- -- 47
2019-09-18 13:00:00 23.6 3 Sudoeste 11 Oeste 0 -- -- 57
2019-09-18 12:00:00 21.6 0 Calma 7 Norte 0 -- -- 60
2019-09-18 11:00:00 18.9 3 Norte 9 Nordeste 0 -- -- 70
2019-09-18 10:00:00 16.2 5 Este 9 Este 0 -- -- 77
2019-09-18 09:00:00 13.6 0 Calma 6 Nordeste 0 -- -- 87
2019-09-18 08:00:00 12.9 2 Este 6 Nordeste 0 -- -- 87
2019-09-18 07:00:00 13.8 3 Nordeste 7 Nordeste 0 -- -- 83
2019-09-18 06:00:00 14.2 7 Nordeste 11 Nordeste 0 -- -- 80
2019-09-18 05:00:00 14.1 3 Nordeste 9 Nordeste 0 -- -- 83
2019-09-18 04:00:00 14.3 3 Norte 10 Nordeste 0 -- -- 82
2019-09-18 03:00:00 15.2 6 Nordeste 10 Nordeste 0 -- -- 78
2019-09-18 02:00:00 15 5 Norte 14 Norte 0 -- -- 81
2019-09-18 01:00:00 15.1 8 Norte 17 Norte 0 -- -- 84
2019-09-18 00:00:00 14.9 5 Norte 12 Norte 0 -- -- 88
2019-09-17 23:00:00 15.3 2 Sudeste 8 Nordeste 0 -- -- 88
2019-09-17 22:00:00 16.2 5 Este 23 Nordeste 0 -- -- 81
2019-09-17 21:00:00 16.7 7 Este 18 Este 0 -- -- 82
2019-09-15 18:00:00 -- -- -- -- -- -- -- -- --
2019-09-15 17:00:00 -- -- -- -- -- -- -- -- --
2019-09-15 16:00:00 22.5 18 Sudeste 39 Sudeste 0 -- -- 69
2019-09-15 15:00:00 22.1 17 Sudeste 35 Sudeste 0 -- -- 72
2019-09-15 14:00:00 23.2 16 Sudeste 33 Sudeste 0 -- -- 67
2019-09-15 13:00:00 21.9 15 Sudeste 35 Sudeste 0 -- -- 71
2019-09-15 12:00:00 21.7 17 Sudeste 34 Sudeste 0 -- -- 72
2019-09-15 11:00:00 20.4 13 Sudeste 30 Sudeste 0 -- -- 78
2019-09-15 10:00:00 17.5 8 Este 17 Este 0 -- -- 85
2019-09-15 09:00:00 16.9 9 Este 19 Este 0 -- -- 86
2019-09-15 08:00:00 16.5 7 Este 15 Este 0 -- -- 86
2019-09-15 07:00:00 16.5 6 Este 14 Este 0 -- -- 87
2019-09-15 06:00:00 16.3 8 Este 19 Sudeste 0 -- -- 88
2019-09-15 05:00:00 16.5 10 Sudeste 30 Este 0 -- -- 87
2019-09-15 04:00:00 16.9 13 Este 36 Sur 0 -- -- 85
2019-09-15 03:00:00 17.1 15 Sudeste 32 Este 0 -- -- 83
2019-09-15 02:00:00 17.2 9 Este 21 Este 0 -- -- 85
2019-09-15 01:00:00 17.4 9 Este 20 Sudeste 0 -- -- 84
2019-09-15 00:00:00 17.3 11 Sudeste 22 Este 0 -- -- 86
2019-09-14 23:00:00 17.2 7 Sudeste 17 Este 0 -- -- 85
2019-09-14 22:00:00 18.2 8 Sudeste 18 Sudeste 0 -- -- 78
2019-09-14 21:00:00 18.9 6 Sudeste 14 Este 0 -- -- 76
2019-09-14 20:00:00 19.5 7 Sudeste 20 Sudeste 0 -- -- 72
2019-09-14 19:00:00 20.2 7 Sudeste 24 Sudeste 0 -- -- 68
2019-09-14 18:00:00 20.6 8 Este 23 Sudeste 0 -- -- 66
2019-09-14 17:00:00 20.6 9 Sudeste 26 Este 0 -- -- 67
2019-09-14 16:00:00 20.4 13 Sudeste 24 Este 0 -- -- 65
2019-09-14 15:00:00 19.2 9 Este 36 Este 0 -- -- 72
2019-09-14 14:00:00 18.8 13 Este 31 Nordeste 0 -- -- 73
2019-09-14 13:00:00 14.5 17 Nordeste 26 Nordeste 4.8 -- -- 93
2019-09-14 12:00:00 14.6 19 Oeste 35 Oeste 0.2 -- -- 89
2019-09-14 11:00:00 15.7 5 Sur 17 Sur 0 -- -- 83
2019-09-14 10:00:00 15.2 8 Sudeste 23 Sudeste 0 -- -- 85
2019-09-14 09:00:00 14.8 10 Sudeste 24 Este 0 -- -- 81
2019-09-14 08:00:00 14.4 12 Este 30 Nordeste 0 -- -- 83
2019-09-14 07:00:00 14.5 12 Este 30 Este 0 -- -- 83
2019-09-14 06:00:00 -- -- -- -- -- -- -- -- --
2019-09-14 05:00:00 -- -- -- -- -- -- -- -- --
2019-09-14 04:00:00 15.6 10 Este 23 Este 0 -- -- 84
2019-09-14 03:00:00 15.9 10 Este 21 Sudeste 0 -- -- 80
2019-09-14 02:00:00 15.6 14 Sudeste 26 Sudeste 0.2 -- -- 83
2019-09-14 01:00:00 15.5 14 Sudeste 27 Sudeste 0 -- -- 86
2019-09-14 00:00:00 15.8 10 Sudeste 33 Sudeste 0.2 -- -- 90
2019-09-13 23:00:00 16.6 16 Sudeste 38 Sudeste 0.2 -- -- 90
2019-09-13 22:00:00 16.7 13 Sudeste 28 Este 0 -- -- 89
2019-09-13 21:00:00 16.7 13 Este 28 Este 0.2 -- -- 85
2019-09-13 20:00:00 16.8 10 Este 23 Sudeste 1.6 -- -- 86
2019-09-13 19:00:00 17.2 8 Este 30 Este 0.2 -- -- 85
2019-09-13 18:00:00 18.2 12 Este 32 Este 0 -- -- 80
2019-09-13 17:00:00 17.6 14 Este 35 Este 0 -- -- 81
2019-09-13 16:00:00 16.4 18 Nordeste 37 Nordeste 0 -- -- 83
2019-09-13 15:00:00 15.9 15 Nordeste 35 Este 0.2 -- -- 84
2019-09-13 14:00:00 14.7 15 Nordeste 41 Nordeste 3 -- -- 90
2019-09-13 13:00:00 13.8 12 Este 25 Sudeste 9.2 -- -- 90
2019-09-13 12:00:00 13.8 16 Sur 39 Este 5.2 -- -- 88
2019-09-13 11:00:00 19.7 15 Este 39 Este 0 -- -- 43
2019-09-13 10:00:00 19.5 14 Este 26 Este 0 -- -- 39
2019-09-13 09:00:00 16.7 7 Nordeste 14 Nordeste 0 -- -- 47
2019-09-13 08:00:00 15.2 6 Nordeste 14 Nordeste 0 -- -- 51
2019-09-13 07:00:00 13.8 5 Norte 10 Norte 0 -- -- 57
2019-09-13 06:00:00 12.8 6 Norte 9 Norte 0 -- -- 61
2019-09-13 05:00:00 12.9 0 Calma 8 Nordeste 0 -- -- 62
2019-09-13 04:00:00 13 3 Norte 8 Norte 0 -- -- 63
2019-09-13 03:00:00 14.1 0 Calma 8 Este 0 -- -- 61
2019-09-13 02:00:00 15.5 0 Calma 12 Sudeste 0 -- -- 58
2019-09-13 01:00:00 16.6 5 Sudeste 23 Sudeste 0 -- -- 55
2019-09-13 00:00:00 16.9 7 Sudeste 21 Nordeste 0 -- -- 56
2019-09-12 23:00:00 17.6 14 Este 26 Este 0 -- -- 56
2019-09-12 22:00:00 18.6 14 Este 24 Este 0 -- -- 54
2019-09-12 21:00:00 19.9 9 Este 28 Este 0 -- -- 51
2019-09-12 20:00:00 21.6 13 Este 49 Este 0 -- -- 47
2019-09-12 19:00:00 22.5 28 Este 54 Este 0 -- -- 45
2019-09-12 18:00:00 22.6 23 Este 49 Nordeste 0 -- -- 47
2019-09-12 17:00:00 22 14 Este 34 Este 0 -- -- 52
2019-09-12 16:00:00 22.4 17 Este 39 Sudeste 0 -- -- 49
2019-09-12 15:00:00 20.9 16 Este 44 Nordeste 0 -- -- 55
2019-09-12 14:00:00 20.8 27 Este 64 Este 0 -- -- 52
2019-09-12 13:00:00 19.8 37 Este 62 Este 0 -- -- 55
2019-09-12 12:00:00 19.3 21 Este 44 Este 0 -- -- 57
2019-09-12 11:00:00 18.2 15 Este 48 Este 0 -- -- 60
2019-09-12 10:00:00 18 22 Este 40 Este 0 -- -- 57
2019-09-12 09:00:00 15.8 17 Este 28 Nordeste 0 -- -- 67
2019-09-12 08:00:00 14.7 18 Nordeste 30 Nordeste 0 -- -- 71
2019-09-12 07:00:00 14.3 17 Nordeste 28 Nordeste 0 -- -- 72
2019-09-12 06:00:00 14.2 16 Nordeste 30 Nordeste 0 -- -- 69
2019-09-12 05:00:00 13.7 9 Nordeste 22 Nordeste 0 -- -- 72
2019-09-12 04:00:00 14.3 14 Nordeste 28 Nordeste 0 -- -- 72
2019-09-12 03:00:00 13.8 10 Nordeste 20 Nordeste 0 -- -- 77
2019-09-12 02:00:00 13.4 9 Nordeste 18 Nordeste 0 -- -- 83
2019-09-12 01:00:00 13.2 7 Nordeste 15 Nordeste 0 -- -- 85
2019-09-12 00:00:00 13.2 4 Nordeste 15 Nordeste 0.2 -- -- 84
2019-09-11 23:00:00 14 4 Este 22 Este 0 -- -- 80
2019-09-11 22:00:00 14.6 10 Nordeste 25 Este 0 -- -- 78
2019-09-11 21:00:00 15.2 6 Este 22 Este 0.2 -- -- 79
2019-09-11 20:00:00 16.3 7 Este 25 Este 0.2 -- -- 71
2019-09-11 19:00:00 16.5 8 Sudeste 26 Sur 0 -- -- 64
2019-09-11 18:00:00 19.7 20 Este 44 Este 0 -- -- 47
2019-09-11 17:00:00 19.9 21 Este 43 Este 0 -- -- 45
2019-09-11 16:00:00 20.6 20 Este 39 Este 0 -- -- 40
2019-09-11 15:00:00 21.5 25 Este 48 Este 0 -- -- 36
2019-09-11 14:00:00 22.4 30 Este 54 Nordeste 0 -- -- 35
2019-09-11 13:00:00 21.9 28 Nordeste 49 Nordeste 0 -- -- 34
2019-09-11 12:00:00 18.9 16 Nordeste 42 Nordeste 0 -- -- 42
2019-09-11 11:00:00 15.7 18 Nordeste 38 Nordeste 0 -- -- 51
2019-09-11 10:00:00 14.4 17 Norte 39 Norte 0 -- -- 57
2019-09-11 09:00:00 12.9 20 Norte 33 Norte 0 -- -- 61
2019-09-11 08:00:00 12.8 14 Nordeste 36 Nordeste 0 -- -- 61
2019-09-11 07:00:00 12.2 18 Norte 31 Norte 0 -- -- 63
2019-09-11 06:00:00 11.7 13 Norte 26 Norte 0 -- -- 65
2019-09-11 05:00:00 11.5 14 Norte 34 Norte 0 -- -- 65
2019-09-11 04:00:00 11.6 19 Norte 36 Norte 0 -- -- 63
2019-09-11 03:00:00 11.7 13 Norte 30 Norte 0 -- -- 63
2019-09-11 02:00:00 11.5 16 Norte 33 Norte 0 -- -- 65
2019-09-11 01:00:00 11 16 Norte 31 Norte 0 -- -- 70
2019-09-11 00:00:00 10.5 18 Norte 27 Norte 0 -- -- 73
2019-09-10 23:00:00 10.3 8 Norte 23 Norte 0 -- -- 76
2019-09-10 22:00:00 10.9 11 Norte 32 Nordeste 0.2 -- -- 75
2019-09-10 21:00:00 13.2 14 Norte 44 Norte 0 -- -- 51
2019-09-10 20:00:00 15.3 28 Norte 48 Noroeste 0 -- -- 41
2019-09-10 19:00:00 16.6 32 Norte 57 Norte 0 -- -- 36
2019-09-10 18:00:00 19.3 29 Norte 57 Norte 0 -- -- 29
2019-09-10 17:00:00 20.2 27 Norte 49 Norte 0 -- -- 25
2019-09-10 16:00:00 19.4 29 Norte 54 Norte 0 -- -- 28
2019-09-10 15:00:00 20.1 24 Norte 48 Noroeste 0 -- -- 26
2019-09-10 14:00:00 19.3 28 Norte 48 Norte 0 -- -- 28
2019-09-10 13:00:00 18.7 24 Norte 51 Noroeste 0 -- -- 29
2019-09-10 12:00:00 17.8 26 Norte 46 Norte 0 -- -- 31
2019-09-10 11:00:00 16.7 28 Norte 46 Norte 0 -- -- 35
2019-09-10 10:00:00 16 19 Nordeste 41 Norte 0 -- -- 40
2019-09-10 09:00:00 14.8 17 Norte 34 Norte 0 -- -- 52
2019-09-10 08:00:00 13.6 12 Noroeste 22 Noroeste 0 -- -- 53
2019-09-10 07:00:00 13 12 Oeste 16 Oeste 0 -- -- 51
2019-09-10 06:00:00 12.8 9 Oeste 21 Oeste 0 -- -- 42
2019-09-10 05:00:00 14.4 12 Oeste 16 Oeste 0 -- -- 39
2019-09-10 04:00:00 15.6 9 Oeste 13 Oeste 0 -- -- 37
2019-09-10 03:00:00 16.5 8 Oeste 19 Noroeste 0 -- -- 36
2019-09-10 02:00:00 18.5 14 Noroeste 31 Noroeste 0 -- -- 33
2019-09-10 01:00:00 20.5 18 Oeste 27 Oeste 0 -- -- 30
2019-09-10 00:00:00 21 13 Oeste 21 Oeste 0 -- -- 29
2019-09-09 23:00:00 21.7 14 Oeste 23 Oeste 0 -- -- 28
2019-09-09 22:00:00 22.9 17 Oeste 31 Oeste 0 -- -- 25
2019-09-09 21:00:00 24.1 19 Oeste 30 Oeste 0 -- -- 23
2019-09-09 20:00:00 26 23 Oeste 41 Oeste 0 -- -- 18
2019-09-09 19:00:00 28 26 Oeste 41 Oeste 0 -- -- 17
2019-09-09 18:00:00 28.4 27 Oeste 48 Oeste 0 -- -- 21
2019-09-09 17:00:00 28.5 25 Oeste 48 Oeste 0 -- -- 21
2019-09-09 16:00:00 28.3 27 Oeste 45 Oeste 0 -- -- 25
2019-09-09 15:00:00 27.7 22 Oeste 39 Oeste 0 -- -- 25
2019-09-09 14:00:00 26.9 19 Oeste 36 Oeste 0 -- -- 30
2019-09-09 13:00:00 25.5 17 Oeste 29 Oeste 0 -- -- 37
2019-09-09 12:00:00 23.1 17 Oeste 32 Oeste 0 -- -- 45
2019-09-09 11:00:00 20.9 18 Oeste 30 Oeste 0 -- -- 56
2019-09-09 10:00:00 18.4 11 Sudoeste 17 Oeste 0 -- -- 65
2019-09-09 09:00:00 14.6 4 Sur 8 Sur 0 -- -- 80
2019-09-09 08:00:00 11.7 0 Calma -- -- 0 -- -- 77
2019-09-09 07:00:00 12.8 0 Calma -- -- 0 -- -- 77
2019-09-09 06:00:00 13.6 0 Calma 4 Este 0 -- -- 72
2019-09-09 05:00:00 14.2 0 Calma 5 Este 0 -- -- 73
2019-09-09 04:00:00 15.1 0 Calma 7 Nordeste 0 -- -- 66
2019-09-09 03:00:00 16.7 3 Sudeste 9 Oeste 0 -- -- 66
2019-09-09 02:00:00 17.7 4 Sudoeste 8 Sudoeste 0 -- -- 61
2019-09-09 01:00:00 18.6 6 Sudoeste 12 Oeste 0 -- -- 60
2019-09-09 00:00:00 19.4 8 Oeste 18 Oeste 0 -- -- 57
2019-09-08 23:00:00 20.7 8 Sudoeste 19 Sudoeste 0 -- -- 50
2019-09-08 22:00:00 22.7 6 Sur 12 Sudoeste 0 -- -- 41
2019-09-08 21:00:00 24.1 4 Sudoeste 11 Sudoeste 0 -- -- 39
2019-09-08 20:00:00 25.7 0 Calma 17 Noroeste 0 -- -- 34
2019-09-08 19:00:00 26.6 8 Noroeste 19 Oeste 0 -- -- 32
2019-09-08 18:00:00 27.5 9 Sudoeste 19 Sudoeste 0 -- -- 31
2019-09-08 17:00:00 27.5 7 Sudoeste 17 Oeste 0 -- -- 31
2019-09-08 16:00:00 29.2 8 Sur 25 Sudeste 0 -- -- 30
2019-09-08 15:00:00 28 4 Sudoeste 21 Sudeste 0 -- -- 36
2019-09-08 14:00:00 26.1 8 Sur 22 Sudeste 0 -- -- 41
2019-09-08 13:00:00 24.5 7 Sur 18 Oeste 0 -- -- 50
2019-09-08 12:00:00 22.9 8 Sur 18 Este 0 -- -- 56
2019-09-08 11:00:00 21.2 8 Sur 16 Sur 0 -- -- 62
2019-09-08 10:00:00 18.5 8 Sudeste 19 Sudeste 0 -- -- 73
2019-09-08 09:00:00 15.8 4 Este 9 Nordeste 0 -- -- 82
2019-09-08 08:00:00 14.2 5 Nordeste 9 Nordeste 0 -- -- 87
2019-09-08 07:00:00 15 3 Este 9 Este 0 -- -- 83
2019-09-08 06:00:00 15.4 3 Sudeste 17 Este 0 -- -- 81
2019-09-08 05:00:00 16.1 7 Este 16 Este 0 -- -- 80
2019-09-08 04:00:00 16.3 6 Este 14 Sudeste 0 -- -- 81
2019-09-08 03:00:00 16.9 7 Sudeste 29 Sudeste 0 -- -- 76
2019-09-08 02:00:00 17.7 12 Sudeste 32 Este 0 -- -- 74
2019-09-08 01:00:00 18.1 9 Sudeste 34 Sudeste 0 -- -- 77
2019-09-08 00:00:00 18.8 13 Sudeste 36 Sudeste 0 -- -- 72
2019-09-07 23:00:00 19.9 19 Sudeste 39 Sudeste 0 -- -- 69
2019-09-07 22:00:00 21.4 16 Sudeste 33 Sudeste 0 -- -- 61
2019-09-07 21:00:00 23.2 12 Sudeste 24 Sudeste 0 -- -- 51
2019-09-07 20:00:00 25.7 8 Sudeste 31 Este 0 -- -- 37
2019-09-07 19:00:00 27.9 12 Este 21 Nordeste 0 -- -- 29
2019-09-07 18:00:00 29 5 Sur 19 Sudeste 0 -- -- 27
2019-09-07 17:00:00 28.7 6 Sudeste 17 Sur 0 -- -- 29
2019-09-07 16:00:00 27.3 6 Sudeste 21 Sudeste 0 -- -- 33
2019-09-07 15:00:00 28 8 Sudeste 24 Nordeste 0 -- -- 34
2019-09-07 14:00:00 26.9 12 Sudeste 27 Sudeste 0 -- -- 40
2019-09-07 13:00:00 25 11 Sudeste 26 Sudeste 0 -- -- 47
2019-09-07 12:00:00 23.2 12 Sudeste 29 Sudeste 0 -- -- 56
2019-09-07 11:00:00 21.1 14 Sudeste 32 Este 0 -- -- 66
2019-09-07 10:00:00 19.3 14 Sudeste 26 Este 0 -- -- 75
2019-09-07 09:00:00 16.9 7 Este 19 Este 0 -- -- 85
2019-09-07 08:00:00 15.9 8 Este 22 Este 0 -- -- 87
2019-09-07 07:00:00 16.5 8 Este 17 Este 0 -- -- 85
2019-09-07 06:00:00 16.9 5 Este 18 Este 0 -- -- 83
2019-09-07 05:00:00 17.6 8 Sudeste 22 Este 0 -- -- 80
2019-09-07 04:00:00 18.6 10 Sudeste 21 Sudeste 0 -- -- 74
2019-09-07 03:00:00 18.3 9 Este 26 Este 0 -- -- 76
2019-09-07 02:00:00 18.3 10 Sudeste 25 Este 0 -- -- 77
2019-09-07 01:00:00 19.1 8 Este 20 Sudeste 0 -- -- 71
2019-09-07 00:00:00 19.7 9 Sudeste 23 Sudeste 0 -- -- 68
2019-09-06 23:00:00 20.6 7 Sudeste 27 Sudeste 0 -- -- 61
2019-09-06 22:00:00 22.4 13 Sudeste 30 Sudeste 0 -- -- 53
2019-09-06 21:00:00 24.7 5 Este 15 Norte 0 -- -- 38
2019-09-06 20:00:00 27.9 2 Sudeste 10 Nordeste 0 -- -- 28
2019-09-06 19:00:00 28.6 4 Nordeste 12 Sudeste 0 -- -- 28
2019-09-06 18:00:00 29.2 6 Sudeste 17 Sudeste 0 -- -- 28
2019-09-06 17:00:00 27.4 4 Sudoeste 15 Sudoeste 0 -- -- 30
2019-09-06 16:00:00 27.6 5 Sudoeste 13 Sudeste 0 -- -- 32
2019-09-06 15:00:00 25.9 4 Este 16 Este 0 -- -- 37
2019-09-06 14:00:00 24.3 6 Sudeste 19 Sudeste 0 -- -- 43
2019-09-06 13:00:00 24.2 6 Sudeste 17 Sudeste 0 -- -- 47
2019-09-06 12:00:00 21.9 7 Sudeste 19 Sudeste 0 -- -- 55
2019-09-06 11:00:00 21 9 Sudeste 26 Nordeste 0 -- -- 55
2019-09-06 10:00:00 18.3 8 Este 21 Este 0 -- -- 61
2019-09-06 09:00:00 15.7 9 Este 19 Este 0 -- -- 64
2019-09-06 08:00:00 15.9 13 Este 22 Este 0 -- -- 63
2019-09-06 07:00:00 15.9 10 Este 18 Este 0 -- -- 61
2019-09-06 06:00:00 16.3 10 Este 17 Este 0 -- -- 56
2019-09-06 05:00:00 16.1 8 Este 16 Este 0 -- -- 52
2019-09-06 04:00:00 16.2 10 Este 16 Nordeste 0 -- -- 52
2019-09-06 03:00:00 16.9 10 Este 18 Este 0 -- -- 47
2019-09-06 02:00:00 17.6 13 Este 28 Este 0 -- -- 40
2019-09-06 01:00:00 18.8 15 Este 33 Este 0 -- -- 34
2019-09-06 00:00:00 20.4 19 Este 33 Este 0 -- -- 29
2019-09-05 23:00:00 19.2 10 Nordeste 21 Nordeste 0 -- -- 29
2019-09-05 22:00:00 20 7 Norte 17 Norte 0 -- -- 27
2019-09-05 21:00:00 22.6 12 Norte 23 Norte 0 -- -- 23
2019-09-05 20:00:00 26.4 15 Norte 26 Norte 0 -- -- 18
2019-09-05 19:00:00 28.2 15 Norte 31 Norte 0 -- -- 20
2019-09-05 18:00:00 29.1 14 Norte 31 Norte 0 -- -- 22
2019-09-05 17:00:00 29.1 8 Norte 23 Norte 0 -- -- 26
2019-09-05 16:00:00 28 7 Nordeste 22 Este 0 -- -- 32
2019-09-05 15:00:00 28.7 5 Sudeste 21 Nordeste 0 -- -- 32
2019-09-05 14:00:00 27.3 5 Este 15 Nordeste 0 -- -- 34
2019-09-05 13:00:00 26.4 8 Este 22 Este 0 -- -- 37
2019-09-05 12:00:00 24.7 9 Este 23 Sudeste 0 -- -- 42
2019-09-05 11:00:00 22.8 10 Este 25 Este 0 -- -- 46
2019-09-05 10:00:00 20.3 13 Este 23 Este 0 -- -- 55
2019-09-05 09:00:00 17.8 6 Este 13 Este 0 -- -- 76
2019-09-05 08:00:00 17.2 4 Este 18 Nordeste 0 -- -- 78
2019-09-05 07:00:00 17.2 6 Nordeste 20 Este 0 -- -- 85
2019-09-05 06:00:00 18.1 7 Este 18 Nordeste 0 -- -- 86
2019-09-05 05:00:00 18.4 9 Este 17 Este 0 -- -- 82
2019-09-05 04:00:00 19.1 9 Este 18 Sudeste 0 -- -- 75
2019-09-05 03:00:00 19.8 11 Este 20 Este 0 -- -- 75
2019-09-05 02:00:00 20.4 10 Este 23 Nordeste 0 -- -- 75
2019-09-05 01:00:00 21.1 15 Este 27 Este 0 -- -- 74
2019-09-05 00:00:00 22.1 6 Este 19 Este 0 -- -- 66
2019-09-04 23:00:00 23.4 4 Este 9 Norte 0 -- -- 31
2019-09-04 22:00:00 24.4 7 Norte 10 Norte 0 -- -- 29
2019-09-04 21:00:00 26.9 5 Norte 15 Norte 0 -- -- 27
2019-09-04 20:00:00 31.2 8 Noroeste 20 Noroeste 0 -- -- 22
2019-09-04 19:00:00 32.4 10 Norte 30 Oeste 0 -- -- 21
2019-09-04 18:00:00 33 10 Noroeste 24 Oeste 0 -- -- 21
2019-09-04 17:00:00 32.5 14 Oeste 28 Oeste 0 -- -- 20
2019-09-04 16:00:00 32.3 14 Oeste 26 Noroeste 0 -- -- 23
2019-09-04 15:00:00 31.1 9 Oeste 17 Sur 0 -- -- 28
2019-09-04 14:00:00 30.1 6 Sur 13 Sur 0 -- -- 36
2019-09-04 13:00:00 27.7 6 Sudoeste 14 Sudoeste 0 -- -- 43
2019-09-04 12:00:00 25.8 5 Sudeste 15 Sudeste 0 -- -- 54
2019-09-04 11:00:00 23.7 8 Sudeste 17 Sudeste 0 -- -- 64
2019-09-04 10:00:00 20.6 6 Sudeste 16 Este 0 -- -- 80
2019-09-04 09:00:00 17.9 5 Este 11 Este 0 -- -- 90
2019-09-04 08:00:00 16.5 3 Nordeste 13 Este 0 -- -- 92
2019-09-04 07:00:00 17.1 6 Este 14 Este 0 -- -- 92
2019-09-04 06:00:00 17.4 8 Este 14 Este 0 -- -- 91
2019-09-04 05:00:00 17.7 10 Este 15 Este 0 -- -- 90
2019-09-04 04:00:00 18.6 5 Este 17 Nordeste 0 -- -- 87
2019-09-04 03:00:00 18.9 9 Nordeste 18 Este 0 -- -- 85
2019-09-04 02:00:00 19.9 7 Este 18 Sudeste 0 -- -- 81
2019-09-04 01:00:00 20.9 10 Este 19 Este 0 -- -- 75
2019-09-04 00:00:00 22 9 Este 20 Este 0 -- -- 59
2019-09-03 23:00:00 23.4 6 Norte 9 Norte 0 -- -- 36
2019-09-03 22:00:00 24.8 7 Norte 8 Norte 0 -- -- 32
2019-09-03 21:00:00 27.1 4 Norte 13 Norte 0 -- -- 29
2019-09-03 20:00:00 30.8 10 Norte 20 Norte 0 -- -- 24
2019-09-03 19:00:00 32.2 8 Norte 27 Norte 0 -- -- 24
2019-09-03 18:00:00 32 17 Oeste 26 Oeste 0 -- -- 24
2019-09-03 17:00:00 32.3 12 Oeste 22 Noroeste 0 -- -- 27
2019-09-03 16:00:00 32.1 11 Nordeste 27 Noroeste 0 -- -- 31
2019-09-03 15:00:00 30.8 7 Sudeste 18 Sudeste 0 -- -- 36
2019-09-03 14:00:00 29.7 6 Sudeste 17 Nordeste 0 -- -- 39
2019-09-03 13:00:00 27.4 9 Sudeste 21 Sudeste 0 -- -- 48
2019-09-03 12:00:00 25.6 8 Sudeste 21 Sudeste 0 -- -- 55
2019-09-03 11:00:00 23.1 10 Sudeste 21 Este 0 -- -- 65
2019-09-03 10:00:00 20 8 Sudeste 21 Este 0 -- -- 79
2019-09-03 09:00:00 18.4 9 Sudeste 24 Sudeste 0 -- -- 86
2019-09-03 08:00:00 17 5 Sudeste 12 Este 0 -- -- 92
2019-09-03 07:00:00 16.6 8 Este 17 Este 0 -- -- 92
2019-09-03 06:00:00 17.1 5 Este 13 Este 0 -- -- 88
2019-09-03 05:00:00 17.8 6 Este 17 Nordeste 0 -- -- 87
2019-09-03 04:00:00 18 8 Este 15 Este 0 -- -- 86
2019-09-03 03:00:00 18.8 9 Este 16 Este 0 -- -- 83
2019-09-03 02:00:00 19.6 8 Este 19 Este 0 -- -- 80
2019-09-03 01:00:00 21.2 7 Este 18 Sudeste 0 -- -- 66
2019-09-03 00:00:00 21.9 9 Sudeste 23 Sudeste 0 -- -- 63
2019-09-02 23:00:00 22.8 7 Este 15 Sudeste 0 -- -- 61
2019-09-02 22:00:00 24.1 7 Sudeste 21 Sudeste 0 -- -- 56
2019-09-02 21:00:00 26 9 Sudeste 19 Sudeste 0 -- -- 50
2019-09-02 20:00:00 27.9 8 Sudeste 19 Sudeste 0 -- -- 42
2019-09-02 19:00:00 29.2 11 Sur 30 Sudeste 0 -- -- 42
2019-09-02 18:00:00 29.3 17 Sudeste 36 Sudeste 0 -- -- 40
2019-09-02 17:00:00 31.5 12 Sudeste 26 Sudeste 0 -- -- 35
2019-09-02 16:00:00 30.4 11 Este 26 Sudeste 0 -- -- 37
2019-09-02 15:00:00 29.5 13 Sudeste 28 Sudeste 0 -- -- 40
2019-09-02 14:00:00 28.2 12 Sur 29 Este 0 -- -- 44
2019-09-02 13:00:00 26.3 14 Sudeste 28 Sudeste 0 -- -- 50
2019-09-02 12:00:00 24.8 14 Sudeste 32 Sudeste 0 -- -- 55
2019-09-02 11:00:00 23.5 13 Sudeste 27 Sudeste 0 -- -- 57
2019-09-02 10:00:00 21.3 12 Sudeste 27 Sudeste 0 -- -- 64
2019-09-02 09:00:00 18.7 11 Este 27 Este 0 -- -- 71
2019-09-02 08:00:00 18 14 Este 26 Este 0 -- -- 74
2019-09-02 07:00:00 18.2 10 Este 24 Este 0 -- -- 73
2019-09-02 06:00:00 19.2 10 Este 23 Este 0 -- -- 67
2019-09-02 05:00:00 19.8 8 Este 27 Este 0 -- -- 63
2019-09-02 04:00:00 20.1 10 Este 26 Este 0 -- -- 66
2019-09-02 03:00:00 20.8 13 Nordeste 21 Nordeste 0 -- -- 64
2019-09-02 02:00:00 21.6 12 Este 21 Este 0 -- -- 62
2019-09-02 01:00:00 21.9 10 Este 31 Este 0 -- -- 65
2019-09-02 00:00:00 23.6 18 Este 34 Este 0 -- -- 59
2019-09-01 23:00:00 25.8 8 Nordeste 25 Noroeste 0 -- -- 42
2019-09-01 22:00:00 27.4 0 Calma 4 Norte 0 -- -- 31
2019-09-01 21:00:00 29 3 Norte 9 Norte 0 -- -- 28
2019-09-01 20:00:00 30.5 7 Noroeste 22 Oeste 0 -- -- 25
2019-09-01 19:00:00 31.6 11 Oeste 26 Oeste 0 -- -- 23
2019-09-01 18:00:00 33 14 Oeste 29 Oeste 0 -- -- 21
2019-09-01 17:00:00 33.2 9 Oeste 27 Oeste 0 -- -- 22
2019-09-01 16:00:00 32.9 10 Noroeste 26 Oeste 0 -- -- 22
2019-09-01 15:00:00 32.9 12 Sudoeste 25 Sudoeste 0 -- -- 22
2019-09-01 14:00:00 31.9 8 Sudoeste 17 Oeste 0 -- -- 24
2019-09-01 13:00:00 29.9 5 Sudoeste 16 Oeste 0 -- -- 33
2019-09-01 12:00:00 27.4 7 Sudoeste 14 Sudoeste 0 -- -- 40
2019-09-01 11:00:00 25.6 5 Sur 10 Sur 0 -- -- 45
2019-09-01 10:00:00 22 4 Este 7 Este 0 -- -- 59
2019-09-01 09:00:00 18.4 0 Calma 8 Nordeste 0 -- -- 73
2019-09-01 08:00:00 16.9 3 Nordeste 9 Nordeste 0 -- -- 78
2019-09-01 07:00:00 17.1 4 Nordeste 10 Nordeste 0 -- -- 78
2019-09-01 06:00:00 17.5 6 Nordeste 12 Nordeste 0 -- -- 75
2019-09-01 05:00:00 18.2 6 Nordeste 13 Nordeste 0 -- -- 70
2019-09-01 04:00:00 18.5 6 Nordeste 12 Nordeste 0 -- -- 65
2019-09-01 03:00:00 19.1 8 Nordeste 10 Nordeste 0 -- -- 59
2019-09-01 02:00:00 20.1 0 Calma 9 Este 0 -- -- 53
2019-09-01 01:00:00 22.9 5 Este 12 Este 0 -- -- 44
2019-09-01 00:00:00 22 6 Nordeste 10 Nordeste 0 -- -- 46
2019-08-31 23:00:00 23.7 4 Este 9 Este 0 -- -- 41
2019-08-31 22:00:00 24.5 3 Norte 12 Norte 0 -- -- 38
2019-08-31 21:00:00 27.5 0 Calma 8 Nordeste 0 -- -- 27
2019-08-31 20:00:00 31.4 4 Nordeste 14 Este 0 -- -- 21
2019-08-31 19:00:00 32.2 6 Nordeste 21 Norte 0 -- -- 22
2019-08-31 18:00:00 32.9 6 Norte 18 Este 0 -- -- 22
2019-08-31 17:00:00 32 6 Nordeste 18 Nordeste 0 -- -- 22
2019-08-31 16:00:00 31.9 6 Oeste 17 Sudoeste 0 -- -- 25
2019-08-31 15:00:00 30.7 5 Oeste 13 Sur 0 -- -- 29
2019-08-31 14:00:00 29.7 5 Oeste 16 Sudoeste 0 -- -- 34
2019-08-31 13:00:00 28.2 8 Sudoeste 13 Sudoeste 0 -- -- 37
2019-08-31 12:00:00 26.8 5 Sudoeste 9 Sudoeste 0 -- -- 39
2019-08-31 11:00:00 24.4 3 Este 10 Nordeste 0 -- -- 50
2019-08-31 10:00:00 21.3 7 Este 10 Nordeste 0 -- -- 57
2019-08-31 09:00:00 17.5 3 Nordeste 6 Nordeste 0 -- -- 70
2019-08-31 08:00:00 16 3 Nordeste 8 Nordeste 0 -- -- 75
2019-08-31 07:00:00 15.9 4 Nordeste 6 Nordeste 0 -- -- 77
2019-08-31 06:00:00 16.3 4 Nordeste 6 Nordeste 0 -- -- 77
2019-08-31 05:00:00 16.8 5 Nordeste 8 Nordeste 0 -- -- 75
2019-08-31 04:00:00 16.7 4 Nordeste 10 Nordeste 0 -- -- 76
2019-08-31 03:00:00 17 4 Este 6 Nordeste 0 -- -- 75
2019-08-31 02:00:00 17.3 3 Nordeste 9 Este 0 -- -- 74
2019-08-31 01:00:00 18 4 Nordeste 9 Nordeste 0 -- -- 72
2019-08-31 00:00:00 19 4 Este 12 Norte 0 -- -- 66
2019-08-30 23:00:00 19.6 6 Noroeste 22 Noroeste 0 -- -- 66
2019-08-30 22:00:00 20.2 3 Nordeste 15 Nordeste 0 -- -- 65
2019-08-30 21:00:00 21.5 10 Nordeste 22 Este 0 -- -- 58
2019-08-30 20:00:00 22.8 10 Nordeste 37 Nordeste 0 -- -- 54
2019-08-30 19:00:00 21.9 19 Nordeste 47 Norte 0.6 -- -- 48
2019-08-30 18:00:00 23.6 17 Nordeste 66 Nordeste 0 -- -- 47
2019-08-30 17:00:00 31.3 15 Nordeste 46 Nordeste 0 -- -- 31
2019-08-30 16:00:00 33.1 5 Sur 22 Sur 0 -- -- 25
2019-08-30 15:00:00 32.9 5 Sudoeste 17 Sudoeste 0 -- -- 26
2019-08-30 14:00:00 32.1 6 Sudeste 14 Sudeste 0 -- -- 28
2019-08-30 13:00:00 30 8 Sudeste 15 Sudeste 0 -- -- 35
2019-08-30 12:00:00 27.9 5 Sudeste 12 Sudeste 0 -- -- 42
2019-08-30 11:00:00 25.1 6 Sudeste 15 Sudeste 0 -- -- 51
2019-08-30 10:00:00 22.3 7 Este 14 Este 0 -- -- 62
2019-08-30 09:00:00 18.7 0 Calma 8 Nordeste 0 -- -- 72
2019-08-30 08:00:00 17.3 0 Calma 12 Este 0 -- -- 76
2019-08-30 07:00:00 17.6 8 Nordeste 13 Este 0 -- -- 74
2019-08-30 06:00:00 18.1 6 Nordeste 16 Nordeste 0 -- -- 72
2019-08-30 05:00:00 18.9 10 Este 17 Nordeste 0 -- -- 71
2019-08-30 04:00:00 19.1 8 Nordeste 16 Nordeste 0 -- -- 74
2019-08-30 03:00:00 20.1 4 Este 9 Este 0 -- -- 73
2019-08-30 02:00:00 20.6 5 Sudeste 18 Este 0 -- -- 70
2019-08-30 01:00:00 21.7 8 Este 20 Este 0 -- -- 60
2019-08-30 00:00:00 22.4 10 Este 18 Sudeste 0 -- -- 60
2019-08-29 23:00:00 23.7 6 Este 21 Este 0 -- -- 53
2019-08-29 22:00:00 24.7 2 Este 6 Este 0 -- -- 38
2019-08-29 21:00:00 27.1 2 Oeste 8 Oeste 0 -- -- 33
2019-08-29 20:00:00 30.9 4 Noroeste 15 Noroeste 0 -- -- 26
2019-08-29 19:00:00 31.9 5 Oeste 19 Oeste 0 -- -- 26
2019-08-29 18:00:00 32.4 6 Oeste 20 Noroeste 0 -- -- 25
2019-08-29 17:00:00 32.1 4 Sudoeste 15 Sudoeste 0 -- -- 26
2019-08-29 16:00:00 31 4 Sur 14 Oeste 0 -- -- 29
2019-08-29 15:00:00 29.3 5 Sudoeste 13 Sudoeste 0 -- -- 34
2019-08-29 14:00:00 28.6 4 Este 12 Sudeste 0 -- -- 39
2019-08-29 13:00:00 27.6 5 Sudeste 13 Sudeste 0 -- -- 43
2019-08-29 12:00:00 27.2 6 Sudeste 14 Sudeste 0 -- -- 45
2019-08-29 11:00:00 24.6 6 Sudeste 13 Sudeste 0 -- -- 54
2019-08-29 10:00:00 21.3 4 Este 15 Este 0 -- -- 65
2019-08-29 09:00:00 18 6 Este 13 Este 0 -- -- 73
2019-08-29 08:00:00 16.7 8 Este 14 Este 0 -- -- 76
2019-08-29 07:00:00 16.7 6 Nordeste 12 Nordeste 0 -- -- 75
2019-08-29 06:00:00 17 6 Nordeste 13 Nordeste 0 -- -- 75
2019-08-29 05:00:00 17.4 8 Nordeste 15 Nordeste 0 -- -- 75
2019-08-29 04:00:00 17.4 9 Este 14 Nordeste 0 -- -- 74
2019-08-29 03:00:00 17.8 8 Nordeste 14 Nordeste 0 -- -- 74
2019-08-29 02:00:00 19.2 9 Este 15 Nordeste 0 -- -- 69
2019-08-29 01:00:00 19.1 7 Nordeste 12 Nordeste 0 -- -- 52
2019-08-29 00:00:00 20.2 0 Calma 5 Norte 0 -- -- 47
2019-08-28 23:00:00 20.9 0 Calma 3 Norte 0 -- -- 51
2019-08-28 22:00:00 23.2 0 Calma 9 Noroeste 0 -- -- 40
2019-08-28 21:00:00 25.2 5 Noroeste 18 Oeste 0 -- -- 34
2019-08-28 20:00:00 28.4 10 Oeste 24 Oeste 0 -- -- 29
2019-08-28 19:00:00 29.6 10 Oeste 24 Oeste 0 -- -- 29
2019-08-28 18:00:00 30.1 12 Oeste 21 Sudoeste 0 -- -- 26
2019-08-28 17:00:00 30.5 6 Sur 25 Noroeste 0 -- -- 26
2019-08-28 16:00:00 29.4 10 Sudoeste 22 Oeste 0 -- -- 30
2019-08-28 15:00:00 29 8 Sur 18 Sudoeste 0 -- -- 32
2019-08-28 14:00:00 27.8 5 Oeste 17 Sudoeste 0 -- -- 34
2019-08-28 13:00:00 26.7 3 Sudeste 12 Sur 0 -- -- 39
2019-08-28 12:00:00 25.3 3 Sudeste 9 Sudoeste 0 -- -- 45
2019-08-28 11:00:00 22.2 0 Calma 8 Este 0 -- -- 55
2019-08-28 10:00:00 19.5 3 Este 10 Nordeste 0 -- -- 68
2019-08-28 09:00:00 15.7 3 Nordeste 6 Nordeste 0 -- -- 83
2019-08-28 08:00:00 14 3 Nordeste 9 Nordeste 0 -- -- 87
2019-08-28 07:00:00 14.5 3 Nordeste 8 Nordeste 0 -- -- 86
2019-08-28 06:00:00 15 6 Nordeste 9 Nordeste 0 -- -- 84
2019-08-28 05:00:00 14.8 0 Calma 6 Nordeste 0 -- -- 82
2019-08-28 04:00:00 15.7 3 Nordeste 8 Este 0 -- -- 80
2019-08-28 03:00:00 16.2 4 Nordeste 9 Nordeste 0 -- -- 78
2019-08-28 02:00:00 16.3 4 Nordeste 8 Nordeste 0 -- -- 76
2019-08-28 01:00:00 17.1 0 Calma 7 Nordeste 0 -- -- 72
2019-08-28 00:00:00 18.1 4 Nordeste 10 Nordeste 0 -- -- 69
2019-08-27 23:00:00 19.1 8 Este 14 Este 0 -- -- 60
2019-08-27 22:00:00 20.4 4 Norte 7 Norte 0 -- -- 56
2019-08-27 21:00:00 22.8 3 Noroeste 13 Noroeste 0 -- -- 47
2019-08-27 20:00:00 26 8 Noroeste 17 Noroeste 0 -- -- 35
2019-08-27 19:00:00 26.2 12 Oeste 22 Oeste 0 -- -- 35
2019-08-27 18:00:00 26.5 11 Oeste 24 Noroeste 0 -- -- 36
2019-08-27 17:00:00 26 11 Oeste 23 Oeste 0 -- -- 38
2019-08-27 16:00:00 25.6 12 Oeste 29 Oeste 0 -- -- 39
2019-08-27 15:00:00 25.3 5 Noroeste 15 Noroeste 0 -- -- 45
2019-08-27 14:00:00 24.3 8 Sudoeste 13 Oeste 0 -- -- 48
2019-08-27 13:00:00 23.4 4 Nordeste 10 Sudeste 0 -- -- 55
2019-08-27 12:00:00 20.9 3 Oeste 9 Sudoeste 0 -- -- 62
2019-08-27 11:00:00 19.2 3 Sur 12 Nordeste 0 -- -- 69
2019-08-27 10:00:00 16.6 6 Este 13 Este 0 -- -- 80
2019-08-27 09:00:00 13.8 5 Este 10 Este 0 -- -- 91
2019-08-27 08:00:00 12.9 2 Sudeste 7 Sudeste 0 -- -- 94
2019-08-27 07:00:00 13.2 4 Este 9 Sudeste 0 -- -- 93
2019-08-27 06:00:00 13.6 5 Este 12 Sur 0 -- -- 92
2019-08-27 05:00:00 14.1 4 Sur 15 Sudoeste 0 -- -- 91
2019-08-27 04:00:00 15.1 3 Este 8 Este 0.2 -- -- 82
2019-08-27 03:00:00 14.9 5 Este 14 Este 0 -- -- 87
2019-08-27 02:00:00 14.7 8 Este 45 Este 0.6 -- -- 86
2019-08-27 01:00:00 15.4 10 Este 29 Oeste 1.4 -- -- 88
2019-08-27 00:00:00 15.7 21 Noroeste 47 Oeste 1.2 -- -- 86
2019-08-26 23:00:00 19.6 13 Sudeste 36 Sudeste 1 -- -- 80
2019-08-26 22:00:00 20.6 14 Sudeste 33 Sudeste 1.8 -- -- 77
2019-08-26 21:00:00 21.9 13 Sudeste 34 Sudeste 0 -- -- 66
2019-08-26 20:00:00 22.3 14 Sudeste 40 Sudeste 0.6 -- -- 67
2019-08-26 19:00:00 26.3 19 Sudeste 41 Sudeste 0 -- -- 46
2019-08-26 18:00:00 27.9 20 Sudeste 39 Sudeste 0 -- -- 40
2019-08-26 17:00:00 27.4 18 Sudeste 37 Sudeste 0 -- -- 41
2019-08-26 16:00:00 26.5 18 Sudeste 38 Sur 0 -- -- 43
2019-08-26 15:00:00 26.6 19 Sudeste 35 Sudeste 0 -- -- 42
2019-08-26 14:00:00 25.2 19 Sudeste 37 Sudeste 0 -- -- 47
2019-08-26 13:00:00 22.8 17 Sudeste 30 Sudeste 0 -- -- 58
2019-08-26 12:00:00 21.4 14 Sudeste 29 Sudeste 0 -- -- 67
2019-08-26 11:00:00 19.3 10 Sudeste 26 Sudeste 0 -- -- 75
2019-08-26 10:00:00 19 12 Sudeste 29 Este 0 -- -- 76
2019-08-26 09:00:00 18.5 12 Sudeste 28 Este 0 -- -- 77
2019-08-26 08:00:00 17.3 12 Este 28 Sudeste 0 -- -- 83
2019-08-26 07:00:00 17.3 10 Sudeste 22 Este 0 -- -- 81
2019-08-26 06:00:00 17.6 10 Sudeste 21 Este 0 -- -- 78
2019-08-26 05:00:00 17.9 9 Sudeste 26 Sudeste 0 -- -- 74
2019-08-26 04:00:00 18.4 7 Sudeste 23 Este 0 -- -- 69
2019-08-26 03:00:00 19.5 11 Sudeste 23 Sudeste 0 -- -- 64
2019-08-26 02:00:00 20.2 10 Sudeste 23 Sudeste 0 -- -- 58
2019-08-26 01:00:00 20.8 10 Sudeste 23 Sudeste 0 -- -- 52
2019-08-26 00:00:00 21.7 11 Sudeste 25 Sudeste 0 -- -- 45
2019-08-25 23:00:00 22.9 11 Sudeste 30 Sudeste 0 -- -- 42
2019-08-25 22:00:00 24.4 16 Sudeste 34 Sudeste 0 -- -- 40
2019-08-25 21:00:00 26.4 13 Sudeste 31 Sudeste 0 -- -- 29
2019-08-25 20:00:00 29.1 17 Sudeste 31 Sur 0 -- -- 26
2019-08-25 19:00:00 30.3 17 Sudeste 33 Sudeste 0 -- -- 22
2019-08-25 18:00:00 31.9 11 Sudeste 33 Sur 0 -- -- 21
2019-08-25 17:00:00 31.9 10 Sudeste 33 Sudeste 0 -- -- 19
2019-08-25 16:00:00 31.7 9 Sudeste 28 Sudeste 0 -- -- 19
2019-08-25 15:00:00 31.2 10 Sudeste 31 Sudeste 0 -- -- 20
2019-08-25 14:00:00 30.5 10 Sudeste 27 Sur 0 -- -- 22
2019-08-25 13:00:00 29.2 12 Sudeste 28 Sudeste 0 -- -- 25
2019-08-25 12:00:00 27.3 9 Sudeste 22 Sudeste 0 -- -- 35
2019-08-25 11:00:00 24.5 13 Sudeste 23 Sudeste 0 -- -- 47
2019-08-25 10:00:00 22.2 7 Sudeste 20 Nordeste 0 -- -- 55
2019-08-25 09:00:00 18.2 10 Este 17 Nordeste 0 -- -- 70
2019-08-25 08:00:00 15.8 7 Nordeste 15 Este 0 -- -- 77
2019-08-25 07:00:00 16.6 6 Este 13 Este 0 -- -- 75
2019-08-25 06:00:00 16.7 5 Este 14 Este 0 -- -- 73
2019-08-25 05:00:00 17.6 8 Este 14 Nordeste 0 -- -- 70
2019-08-25 04:00:00 18.6 5 Este 13 Sudeste 0 -- -- 67
2019-08-25 03:00:00 19.7 5 Este 20 Este 0 -- -- 62
2019-08-25 02:00:00 20.6 10 Sudeste 27 Sudeste 0 -- -- 57
2019-08-25 01:00:00 21.4 5 Este 21 Sudeste 0 -- -- 51
2019-08-25 00:00:00 22.5 9 Sudeste 23 Este 0 -- -- 48
2019-08-24 23:00:00 24 12 Sudeste 24 Este 0 -- -- 41
2019-08-24 22:00:00 26.4 11 Sudeste 23 Sudeste 0 -- -- 29
2019-08-24 21:00:00 28.6 3 Sur 14 Sudoeste 0 -- -- 24
2019-08-24 20:00:00 31.2 9 Sudoeste 17 Sudoeste 0 -- -- 21
2019-08-24 19:00:00 32.6 6 Sur 16 Sudoeste 0 -- -- 20
2019-08-24 18:00:00 32.4 6 Nordeste 16 Sur 0 -- -- 21
2019-08-24 17:00:00 32.7 7 Sur 22 Este 0 -- -- 20
2019-08-24 16:00:00 31.7 7 Nordeste 18 Este 0 -- -- 22
2019-08-24 15:00:00 31.1 6 Sur 17 Sudeste 0 -- -- 24
2019-08-24 14:00:00 30.3 6 Sudeste 18 Sur 0 -- -- 24
2019-08-24 13:00:00 28.6 6 Sudeste 19 Sur 0 -- -- 29
2019-08-24 12:00:00 27.1 7 Sur 19 Sudeste 0 -- -- 27
2019-08-24 11:00:00 25.1 9 Sudeste 21 Sudeste 0 -- -- 36
2019-08-24 10:00:00 21.7 6 Este 14 Este 0 -- -- 44
2019-08-24 09:00:00 17.1 5 Este 9 Este 0 -- -- 55
2019-08-24 08:00:00 15.2 3 Este 9 Este 0 -- -- 59
2019-08-24 07:00:00 15.7 7 Este 12 Este 0 -- -- 57
2019-08-24 06:00:00 16.1 5 Este 13 Este 0 -- -- 56
2019-08-24 05:00:00 16 6 Este 12 Este 0 -- -- 55
2019-08-24 04:00:00 17.1 8 Este 13 Este 0 -- -- 53
2019-08-24 03:00:00 18 5 Este 13 Este 0 -- -- 53
2019-08-24 02:00:00 19 5 Este 19 Este 0 -- -- 47
2019-08-24 01:00:00 20.8 7 Este 26 Sudeste 0 -- -- 40
2019-08-24 00:00:00 22 10 Sudeste 20 Sudeste 0 -- -- 39
2019-08-23 23:00:00 22.6 6 Sudeste 15 Sudeste 0 -- -- 33
2019-08-23 22:00:00 24.4 3 Este 9 Sudeste 0 -- -- 25
2019-08-23 21:00:00 27.3 5 Sudeste 12 Sudeste 0 -- -- 21
2019-08-23 20:00:00 30.7 7 Sudeste 17 Sudeste 0 -- -- 17
2019-08-23 19:00:00 31.2 7 Sudeste 21 Sur 0 -- -- 17
2019-08-23 18:00:00 31.6 6 Sudeste 26 Este 0 -- -- 17
2019-08-23 17:00:00 31.2 8 Sur 23 Este 0 -- -- 17
2019-08-23 16:00:00 30.7 9 Sudeste 24 Este 0 -- -- 18
2019-08-23 15:00:00 30.2 12 Sudeste 29 Sudeste 0 -- -- 20
2019-08-23 14:00:00 29.3 10 Sudeste 27 Sudeste 0 -- -- 24
2019-08-23 13:00:00 27.9 12 Sudeste 28 Sudeste 0 -- -- 27
2019-08-23 12:00:00 26.4 12 Sudeste 29 Sudeste 0 -- -- 32
2019-08-23 11:00:00 24.3 13 Sudeste 23 Sudeste 0 -- -- 39
2019-08-23 10:00:00 21.1 8 Este 18 Este 0 -- -- 52
2019-08-23 09:00:00 16.9 10 Este 16 Nordeste 0 -- -- 64
2019-08-23 08:00:00 14.4 6 Nordeste 15 Nordeste 0 -- -- 71
2019-08-23 07:00:00 14.6 6 Nordeste 10 Nordeste 0 -- -- 69
2019-08-23 06:00:00 15.1 4 Nordeste 11 Nordeste 0 -- -- 66
2019-08-23 05:00:00 15.6 8 Nordeste 14 Este 0 -- -- 66
2019-08-23 04:00:00 17.7 6 Este 18 Este 0 -- -- 60
2019-08-23 03:00:00 17.8 5 Este 15 Nordeste 0 -- -- 63
2019-08-23 02:00:00 19.3 4 Sudeste 11 Este 0 -- -- 59
2019-08-23 01:00:00 20.8 5 Este 19 Sudeste 0 -- -- 52
2019-08-23 00:00:00 22.1 10 Sudeste 22 Sudeste 0 -- -- 59
2019-08-22 23:00:00 23 8 Sudeste 17 Este 0 -- -- 42
2019-08-22 22:00:00 24.2 4 Sudeste 9 Sudeste 0 -- -- 35
2019-08-22 21:00:00 26.9 5 Sudeste 16 Sudeste 0 -- -- 28
2019-08-22 20:00:00 29.9 8 Sudeste 19 Sudeste 0 -- -- 24
2019-08-22 19:00:00 30.9 7 Sudeste 21 Este 0 -- -- 22
2019-08-22 18:00:00 30.9 6 Sudeste 21 Sur 0 -- -- 23
2019-08-22 17:00:00 30.5 8 Sudeste 19 Este 0 -- -- 25
2019-08-22 16:00:00 29.9 5 Sur 23 Nordeste 0 -- -- 25
2019-08-22 15:00:00 29.1 9 Este 23 Sudeste 0 -- -- 29
2019-08-22 14:00:00 28.5 11 Sudeste 24 Sur 0 -- -- 31
2019-08-22 13:00:00 26.9 7 Sudeste 23 Sudeste 0 -- -- 34
2019-08-22 12:00:00 25.6 10 Sudeste 22 Sudeste 0 -- -- 37
2019-08-22 11:00:00 23.3 8 Sudeste 22 Este 0 -- -- 42
2019-08-22 10:00:00 20.3 6 Este 15 Este 0 -- -- 54
2019-08-22 09:00:00 16.2 8 Este 13 Este 0 -- -- 64
2019-08-22 08:00:00 13.6 2 Nordeste 6 Norte 0 -- -- 75
2019-08-22 07:00:00 14.3 4 Nordeste 9 Nordeste 0 -- -- 74
2019-08-22 06:00:00 14.8 6 Nordeste 9 Nordeste 0 -- -- 75
2019-08-22 05:00:00 15.1 0 Calma 13 Nordeste 0 -- -- 75
2019-08-22 04:00:00 15.2 6 Nordeste 12 Nordeste 0 -- -- 77
2019-08-22 03:00:00 15.8 4 Nordeste 9 Sudeste 0 -- -- 76
2019-08-22 02:00:00 17.2 4 Sudeste 9 Este 0 -- -- 71
2019-08-22 01:00:00 18.1 3 Sur 9 Sudeste 0 -- -- 68
2019-08-22 00:00:00 18.9 5 Este 22 Este 0 -- -- 69
2019-08-21 23:00:00 19.4 14 Este 32 Nordeste 0 -- -- 69
2019-08-21 22:00:00 19.1 16 Este 27 Este 0 -- -- 73
2019-08-21 21:00:00 20.2 10 Sudeste 24 Este 0 -- -- 69
2019-08-21 20:00:00 22.3 10 Este 22 Este 0 -- -- 62
2019-08-21 19:00:00 22.2 12 Sudeste 29 Sudeste 0 -- -- 63
2019-08-21 18:00:00 23.8 12 Sudeste 30 Sudeste 0 -- -- 58
2019-08-21 17:00:00 23.2 13 Sudeste 30 Sudeste 0 -- -- 62
2019-08-21 16:00:00 22.1 11 Sudeste 33 Sudeste 0 -- -- 63
2019-08-21 15:00:00 23.6 13 Sudeste 33 Sudeste 0 -- -- 57
2019-08-21 14:00:00 22.6 17 Sudeste 32 Sur 0 -- -- 62
2019-08-21 13:00:00 23.9 15 Sudeste 33 Sudeste 0 -- -- 56
2019-08-21 12:00:00 23.7 15 Sudeste 32 Sudeste 0 -- -- 56
2019-08-21 11:00:00 23 16 Sudeste 32 Sudeste 0 -- -- 61
2019-08-21 10:00:00 20 12 Sudeste 30 Sudeste 0 -- -- 76
2019-08-21 09:00:00 19.5 13 Sudeste 32 Sudeste 0 -- -- 79
2019-08-21 08:00:00 19.2 10 Sudeste 24 Sudeste 0 -- -- 80
2019-08-21 07:00:00 19.2 9 Sudeste 23 Sudeste 0 -- -- 78
2019-08-21 06:00:00 19.2 12 Sudeste 30 Sudeste 0 -- -- 78
2019-08-21 05:00:00 19.3 12 Sudeste 29 Este 0 -- -- 77
2019-08-21 04:00:00 19.3 13 Sudeste 29 Este 0 -- -- 77
2019-08-21 03:00:00 19.4 12 Sudeste 28 Sudeste 0 -- -- 76
2019-08-21 02:00:00 19.5 14 Sudeste 30 Sudeste 0 -- -- 73
2019-08-21 01:00:00 19.7 13 Sudeste 32 Este 0 -- -- 70
2019-08-21 00:00:00 19.8 10 Este 27 Sudeste 0 -- -- 66